Time;durP1;ratioP1;P1;durP2;ratioP2;P2;SDS_P1;SDS_P2;PMS_P1;PMS_P2;Temp;Humidity;BMP_temperature;BMP_pressure;BME280_temperature;BME280_humidity;BME280_pressure;Samples;Min_cycle;Max_cycle;Signal;HPM_P1;HPM_P2
2021/08/29 00:01:55;;;;;;;3.50;3.30;;;18.80;95.20;;;;;;5073990;28;20183;-72
2021/08/29 00:04:20;;;;;;;3.97;3.67;;;18.80;95.30;;;;;;5069597;28;20265;-71
2021/08/29 00:06:46;;;;;;;3.65;3.45;;;18.80;95.30;;;;;;5075548;28;20178;-71
2021/08/29 00:09:12;;;;;;;3.70;3.40;;;18.80;95.20;;;;;;5064303;28;20186;-72
2021/08/29 00:11:38;;;;;;;4.35;4.05;;;18.80;95.40;;;;;;5068894;28;20193;-71
2021/08/29 00:14:03;;;;;;;4.63;3.85;;;18.80;95.40;;;;;;5067352;28;20256;-72
2021/08/29 00:16:29;;;;;;;4.32;3.92;;;18.70;95.60;;;;;;5063357;28;20180;-71
2021/08/29 00:18:55;;;;;;;3.92;3.50;;;18.70;95.70;;;;;;5072801;28;20778;-72
2021/08/29 00:21:21;;;;;;;3.60;3.40;;;18.70;95.80;;;;;;5069019;28;20260;-71
2021/08/29 00:23:47;;;;;;;4.40;3.40;;;18.70;95.70;;;;;;5068484;28;20188;-71
2021/08/29 00:26:13;;;;;;;5.07;3.55;;;18.70;95.80;;;;;;5067244;28;20183;-71
2021/08/29 00:28:39;;;;;;;3.70;3.33;;;18.70;95.80;;;;;;5065454;28;20193;-71
2021/08/29 00:31:04;;;;;;;3.88;3.22;;;18.70;95.90;;;;;;5069929;28;20187;-71
2021/08/29 00:33:30;;;;;;;4.25;3.80;;;18.70;95.80;;;;;;5067934;28;20190;-71
2021/08/29 00:35:57;;;;;;;3.40;3.13;;;18.80;95.80;;;;;;5063139;28;20179;-72
2021/08/29 00:38:22;;;;;;;3.25;3.15;;;18.80;96.10;;;;;;5060199;28;20188;-71
2021/08/29 00:40:50;;;;;;;5.03;3.95;;;18.80;96.00;;;;;;5072337;28;20188;-71
2021/08/29 00:43:16;;;;;;;4.28;3.88;;;18.80;96.10;;;;;;5072591;28;20176;-71
2021/08/29 00:45:43;;;;;;;4.05;3.72;;;18.80;96.20;;;;;;5064946;28;20219;-71
2021/08/29 00:48:13;;;;;;;4.35;4.10;;;18.80;95.90;;;;;;5067558;28;20283;-71
2021/08/29 00:50:46;;;;;;;3.88;3.58;;;18.90;95.80;;;;;;5063645;28;20273;-71
2021/08/29 00:53:18;;;;;;;5.07;4.10;;;18.90;95.50;;;;;;5065863;28;20540;-71
2021/08/29 00:55:45;;;;;;;4.35;3.95;;;18.90;96.00;;;;;;5067602;28;20188;-71
2021/08/29 00:58:11;;;;;;;5.28;4.68;;;18.90;96.00;;;;;;5063312;28;20567;-71
2021/08/29 01:00:40;;;;;;;12.18;5.90;;;19.00;96.20;;;;;;5072484;28;20179;-71
2021/08/29 01:03:13;;;;;;;7.55;6.03;;;19.00;95.80;;;;;;5066307;28;20268;-71
2021/08/29 01:06:02;;;;;;;6.28;5.65;;;19.00;95.40;;;;;;5063534;28;20341;-71
2021/08/29 01:08:35;;;;;;;10.45;6.65;;;19.00;95.10;;;;;;5071150;28;20262;-71
2021/08/29 01:11:08;;;;;;;10.95;5.82;;;19.00;95.50;;;;;;5065929;28;20178;-72
2021/08/29 01:13:37;;;;;;;8.60;5.70;;;19.00;95.20;;;;;;5064773;28;20197;-71
2021/08/29 01:16:06;;;;;;;6.45;5.68;;;19.00;95.10;;;;;;5071034;28;20241;-72
2021/08/29 01:18:38;;;;;;;7.25;5.05;;;19.00;95.00;;;;;;5062823;28;20269;-71
2021/08/29 01:21:14;;;;;;;6.20;5.60;;;19.00;95.10;;;;;;5075092;28;20175;-72
2021/08/29 01:23:42;;;;;;;5.75;5.25;;;19.00;95.50;;;;;;5066598;28;20575;-71
2021/08/29 01:26:28;;;;;;;6.05;5.45;;;19.00;95.10;;;;;;5070988;28;20191;-71
2021/08/29 01:29:05;;;;;;;6.57;5.97;;;19.00;94.60;;;;;;5073605;28;20248;-71
2021/08/29 01:31:34;;;;;;;6.68;6.03;;;18.80;95.30;;;;;;5074831;28;20256;-71
2021/08/29 01:34:05;;;;;;;8.38;5.93;;;18.70;95.40;;;;;;5063323;28;20179;-71
2021/08/29 01:36:32;;;;;;;6.47;5.57;;;18.70;96.00;;;;;;5068562;28;20195;-71
2021/08/29 01:38:59;;;;;;;7.45;6.45;;;18.70;96.00;;;;;;5065254;28;20184;-71
2021/08/29 01:41:26;;;;;;;12.85;6.30;;;18.60;95.80;;;;;;5072211;28;20218;-72
2021/08/29 01:43:52;;;;;;;7.28;5.75;;;18.60;96.30;;;;;;5064486;28;20211;-71
2021/08/29 01:46:18;;;;;;;8.63;6.03;;;18.60;96.50;;;;;;5071699;28;20225;-71
2021/08/29 01:48:45;;;;;;;8.38;5.28;;;18.60;96.50;;;;;;5068000;28;20180;-71
2021/08/29 01:51:11;;;;;;;6.28;5.53;;;18.60;96.80;;;;;;5072877;28;20576;-72
2021/08/29 01:53:39;;;;;;;6.72;5.68;;;18.60;97.00;;;;;;5072357;28;20186;-71
2021/08/29 01:56:06;;;;;;;7.18;5.95;;;18.50;97.20;;;;;;5075135;28;20186;-71
2021/08/29 01:58:32;;;;;;;6.35;5.75;;;18.50;97.50;;;;;;5070344;28;20186;-71
2021/08/29 02:01:01;;;;;;;10.50;5.78;;;18.60;97.50;;;;;;5073336;28;20175;-71
2021/08/29 02:03:30;;;;;;;6.20;5.63;;;18.60;96.90;;;;;;5074383;28;20199;-71
2021/08/29 02:06:31;;;;;;;6.18;5.57;;;18.60;97.10;;;;;;5071130;28;20210;-71
2021/08/29 02:09:00;;;;;;;6.72;5.47;;;18.60;96.50;;;;;;5068936;28;20939;-71
2021/08/29 02:11:29;;;;;;;5.75;5.22;;;18.60;97.50;;;;;;5072358;28;20189;-71
2021/08/29 02:14:01;;;;;;;6.53;5.40;;;18.60;97.20;;;;;;5071825;28;20210;-71
2021/08/29 02:16:29;;;;;;;7.57;6.05;;;18.70;97.20;;;;;;5069714;28;20217;-71
2021/08/29 02:18:56;;;;;;;6.60;5.50;;;18.60;97.20;;;;;;5080470;28;20177;-70
2021/08/29 02:21:26;;;;;;;5.90;5.30;;;18.70;96.90;;;;;;5069595;28;20172;-70
2021/08/29 02:23:52;;;;;;;5.95;5.45;;;18.70;96.80;;;;;;5072055;28;20182;-71
2021/08/29 02:26:21;;;;;;;7.50;6.03;;;18.70;96.70;;;;;;5070632;28;20266;-71
2021/08/29 02:28:47;;;;;;;7.68;5.97;;;18.70;96.90;;;;;;5066048;28;20198;-71
2021/08/29 02:31:13;;;;;;;7.85;6.47;;;18.80;96.80;;;;;;5066739;28;20186;-71
2021/08/29 02:33:39;;;;;;;6.68;6.05;;;18.80;96.70;;;;;;5063172;28;20602;-72
2021/08/29 02:36:06;;;;;;;6.18;5.57;;;18.80;96.60;;;;;;5070335;28;20194;-71
2021/08/29 02:38:32;;;;;;;6.88;6.18;;;18.90;96.60;;;;;;5073062;28;20186;-71
2021/08/29 02:40:59;;;;;;;7.38;6.10;;;18.90;96.60;;;;;;5075343;28;20179;-71
2021/08/29 02:43:26;;;;;;;5.82;5.00;;;18.90;96.60;;;;;;5068864;28;20269;-71
2021/08/29 02:45:53;;;;;;;4.50;4.13;;;18.90;96.70;;;;;;5067922;28;20942;-71
2021/08/29 02:48:21;;;;;;;3.60;3.30;;;19.00;96.20;;;;;;5069220;28;20190;-73
2021/08/29 02:50:47;;;;;;;4.07;3.05;;;19.00;96.20;;;;;;5071717;28;20223;-71
2021/08/29 02:53:16;;;;;;;2.70;2.60;;;19.00;96.00;;;;;;5073293;28;20186;-72
2021/08/29 02:55:45;;;;;;;2.60;2.08;;;19.00;95.50;;;;;;5066362;28;20187;-72
2021/08/29 02:58:13;;;;;;;3.30;3.10;;;19.00;95.60;;;;;;5078061;28;20218;-72
2021/08/29 03:00:39;;;;;;;4.82;3.00;;;19.00;95.50;;;;;;5070845;28;20175;-74
2021/08/29 03:03:04;;;;;;;2.75;2.55;;;19.00;95.70;;;;;;5073936;28;20635;-74
2021/08/29 03:05:31;;;;;;;4.32;3.95;;;19.00;95.70;;;;;;5070497;28;20214;-74
2021/08/29 03:07:57;;;;;;;4.22;3.92;;;19.00;96.00;;;;;;5066119;28;20203;-74
2021/08/29 03:10:23;;;;;;;4.78;4.43;;;18.90;97.40;;;;;;5069438;28;20187;-74
2021/08/29 03:12:50;;;;;;;13.02;4.93;;;18.80;98.20;;;;;;5067052;28;20688;-73
2021/08/29 03:15:16;;;;;;;4.13;3.75;;;18.70;97.90;;;;;;5068385;28;20179;-72
2021/08/29 03:17:42;;;;;;;6.93;4.68;;;18.60;98.50;;;;;;5073539;28;20174;-72
2021/08/29 03:20:08;;;;;;;3.13;2.97;;;18.50;98.50;;;;;;5078370;28;20261;-72
2021/08/29 03:22:35;;;;;;;3.22;3.03;;;18.30;98.50;;;;;;5062746;28;20229;-73
2021/08/29 03:25:01;;;;;;;3.78;3.33;;;18.20;98.50;;;;;;5074043;28;20237;-72
2021/08/29 03:27:27;;;;;;;3.50;3.20;;;18.20;98.50;;;;;;5065256;28;20207;-72
2021/08/29 03:29:52;;;;;;;7.30;4.05;;;18.10;98.50;;;;;;5064915;28;20187;-72
2021/08/29 03:32:23;;;;;;;4.15;3.15;;;18.10;98.50;;;;;;5068642;28;20420;-73
2021/08/29 03:34:53;;;;;;;6.28;3.67;;;18.20;98.50;;;;;;5074789;28;20614;-73
2021/08/29 03:37:21;;;;;;;3.25;2.97;;;18.10;98.50;;;;;;5073128;28;20722;-72
2021/08/29 03:39:46;;;;;;;5.75;3.80;;;18.10;98.50;;;;;;5066913;28;20183;-73
2021/08/29 03:42:14;;;;;;;4.68;4.03;;;18.20;98.50;;;;;;5065406;28;20306;-73
2021/08/29 03:44:40;;;;;;;4.82;3.80;;;18.20;98.50;;;;;;5065325;28;20219;-73
2021/08/29 03:47:06;;;;;;;3.38;2.80;;;18.20;98.50;;;;;;5073355;28;20182;-73
2021/08/29 03:49:32;;;;;;;1.95;1.77;;;18.20;98.50;;;;;;5070069;28;20205;-73
2021/08/29 03:52:00;;;;;;;2.38;2.10;;;18.20;98.50;;;;;;5075171;28;20229;-72
2021/08/29 03:54:26;;;;;;;1.23;1.23;;;18.20;98.50;;;;;;5066532;28;20260;-73
2021/08/29 03:56:53;;;;;;;1.55;1.48;;;18.20;98.50;;;;;;5072315;28;20638;-73
2021/08/29 03:59:19;;;;;;;1.58;1.17;;;18.20;98.50;;;;;;5069825;28;20211;-73
2021/08/29 04:01:45;;;;;;;4.50;1.55;;;18.20;98.50;;;;;;5071161;28;20623;-72
2021/08/29 04:04:11;;;;;;;0.90;0.90;;;18.10;98.50;;;;;;5068664;28;20312;-72
2021/08/29 04:06:38;;;;;;;1.08;1.08;;;18.00;98.50;;;;;;5072509;28;20566;-72
2021/08/29 04:09:07;;;;;;;1.60;1.50;;;18.00;98.50;;;;;;5070056;28;20228;-72
2021/08/29 04:11:35;;;;;;;1.55;1.55;;;17.90;98.50;;;;;;5069358;28;20325;-72
2021/08/29 04:14:01;;;;;;;2.83;2.22;;;17.80;98.50;;;;;;5068121;28;20192;-72
2021/08/29 04:16:28;;;;;;;1.92;1.83;;;17.70;98.50;;;;;;5074966;28;20656;-72
2021/08/29 04:18:54;;;;;;;2.30;2.15;;;17.70;98.50;;;;;;5059621;28;20191;-72
2021/08/29 04:21:23;;;;;;;2.28;2.10;;;17.60;98.50;;;;;;5069423;28;20249;-72
2021/08/29 04:23:50;;;;;;;2.17;2.17;;;17.50;98.50;;;;;;5068038;28;20560;-73
2021/08/29 04:26:16;;;;;;;2.53;2.47;;;17.50;98.50;;;;;;5065369;28;20715;-72
2021/08/29 04:28:42;;;;;;;2.65;2.47;;;17.50;98.50;;;;;;5065386;28;20207;-72
2021/08/29 04:31:13;;;;;;;2.13;2.03;;;17.50;98.50;;;;;;5061973;28;20555;-73
2021/08/29 04:33:39;;;;;;;2.80;2.70;;;17.40;98.50;;;;;;5078271;28;20189;-73
2021/08/29 04:36:10;;;;;;;2.88;2.75;;;17.30;98.50;;;;;;5067611;28;20737;-73
2021/08/29 04:38:37;;;;;;;3.03;2.85;;;17.20;98.50;;;;;;5062739;28;20271;-74
2021/08/29 04:41:03;;;;;;;3.35;3.08;;;17.20;98.50;;;;;;5065939;28;20192;-74
2021/08/29 04:43:29;;;;;;;2.88;2.78;;;17.10;98.50;;;;;;5070781;28;20187;-74
2021/08/29 04:45:54;;;;;;;3.03;2.92;;;17.00;98.50;;;;;;5063040;28;20210;-73
2021/08/29 04:48:20;;;;;;;3.95;3.65;;;17.00;98.50;;;;;;5061823;28;20178;-73
2021/08/29 04:50:46;;;;;;;4.30;4.00;;;17.00;98.50;;;;;;5066190;28;20179;-73
2021/08/29 04:53:12;;;;;;;4.10;3.67;;;17.00;98.50;;;;;;5072220;28;20573;-73
2021/08/29 04:55:38;;;;;;;3.65;3.45;;;17.00;98.50;;;;;;5061289;28;20184;-73
2021/08/29 04:58:03;;;;;;;3.80;3.55;;;16.90;98.50;;;;;;5068475;28;20180;-74
2021/08/29 05:00:29;;;;;;;4.28;3.97;;;16.90;98.50;;;;;;5066577;28;20183;-74
2021/08/29 05:02:55;;;;;;;4.30;4.00;;;16.90;98.50;;;;;;5078171;28;20705;-74
2021/08/29 05:05:20;;;;;;;4.18;3.95;;;17.00;98.50;;;;;;5077788;28;20249;-74
2021/08/29 05:07:46;;;;;;;4.18;3.78;;;17.00;98.50;;;;;;5066619;28;20252;-73
2021/08/29 05:10:12;;;;;;;4.72;4.32;;;17.10;98.50;;;;;;5071149;28;20191;-73
2021/08/29 05:12:38;;;;;;;4.80;4.40;;;17.10;98.50;;;;;;5062329;28;20200;-74
2021/08/29 05:15:04;;;;;;;4.63;4.32;;;17.10;98.50;;;;;;5069996;28;20193;-73
2021/08/29 05:17:31;;;;;;;5.05;4.63;;;17.10;98.50;;;;;;5076376;28;20179;-73
2021/08/29 05:19:57;;;;;;;4.38;4.03;;;17.10;98.50;;;;;;5072255;28;20193;-73
2021/08/29 05:22:23;;;;;;;5.25;4.72;;;17.10;98.50;;;;;;5074135;28;20589;-73
2021/08/29 05:24:49;;;;;;;5.45;4.97;;;17.10;98.50;;;;;;5072841;28;20211;-73
2021/08/29 05:27:15;;;;;;;4.90;4.50;;;17.10;98.50;;;;;;5070576;28;20202;-73
2021/08/29 05:29:40;;;;;;;5.40;5.00;;;17.20;98.50;;;;;;5076617;28;20670;-72
2021/08/29 05:32:07;;;;;;;5.85;5.22;;;17.20;98.50;;;;;;5069667;28;20202;-73
2021/08/29 05:34:32;;;;;;;5.55;5.05;;;17.20;98.50;;;;;;5070742;28;20282;-72
2021/08/29 05:36:58;;;;;;;5.68;5.10;;;17.10;98.50;;;;;;5070803;28;20297;-72
2021/08/29 05:39:24;;;;;;;6.28;5.22;;;17.10;98.50;;;;;;5076240;28;20189;-73
2021/08/29 05:41:49;;;;;;;6.18;5.57;;;17.20;98.50;;;;;;5076239;28;20269;-73
2021/08/29 05:44:16;;;;;;;9.25;5.05;;;17.10;98.50;;;;;;5071065;28;20718;-73
2021/08/29 05:46:41;;;;;;;6.10;5.50;;;17.10;98.50;;;;;;5074211;28;20183;-74
2021/08/29 05:49:07;;;;;;;7.00;5.85;;;17.10;98.50;;;;;;5071683;28;21092;-73
2021/08/29 05:51:33;;;;;;;8.15;5.78;;;17.10;98.50;;;;;;5071908;28;20191;-72
2021/08/29 05:53:58;;;;;;;6.22;5.63;;;17.10;98.50;;;;;;5070752;28;20672;-72
2021/08/29 05:56:24;;;;;;;6.38;5.75;;;17.10;98.50;;;;;;5075338;28;20672;-72
2021/08/29 05:58:50;;;;;;;5.82;5.28;;;17.10;98.50;;;;;;5073926;28;20262;-72
2021/08/29 06:01:16;;;;;;;6.50;5.50;;;17.10;98.50;;;;;;5068874;28;20742;-71
2021/08/29 06:03:42;;;;;;;6.00;5.43;;;17.20;98.50;;;;;;5066515;28;20183;-71
2021/08/29 06:06:07;;;;;;;5.95;5.38;;;17.20;98.50;;;;;;5073670;28;20240;-71
2021/08/29 06:08:33;;;;;;;6.75;6.05;;;17.30;98.50;;;;;;5072954;28;20179;-71
2021/08/29 06:11:00;;;;;;;6.43;5.80;;;17.30;98.50;;;;;;5077359;28;20237;-71
2021/08/29 06:13:25;;;;;;;7.13;5.38;;;17.30;98.50;;;;;;5063808;28;20195;-71
2021/08/29 06:15:51;;;;;;;7.05;5.55;;;17.30;98.50;;;;;;5069635;28;20190;-71
2021/08/29 06:18:17;;;;;;;7.18;5.63;;;17.40;98.50;;;;;;5068077;28;20182;-70
2021/08/29 06:20:43;;;;;;;10.32;6.22;;;17.40;98.50;;;;;;5067632;28;20201;-70
2021/08/29 06:23:10;;;;;;;6.25;5.75;;;17.40;98.40;;;;;;5072319;28;20257;-70
2021/08/29 06:25:35;;;;;;;7.07;5.75;;;17.40;98.30;;;;;;5065642;28;20207;-69
2021/08/29 06:28:02;;;;;;;8.85;6.55;;;17.50;98.50;;;;;;5065928;28;20692;-69
2021/08/29 06:30:28;;;;;;;7.18;6.38;;;17.50;98.30;;;;;;5067797;28;20661;-70
2021/08/29 06:32:54;;;;;;;6.72;6.05;;;17.50;98.40;;;;;;5068384;28;20252;-70
2021/08/29 06:35:20;;;;;;;6.65;5.97;;;17.50;98.20;;;;;;5064038;28;20382;-70
2021/08/29 06:37:46;;;;;;;6.38;5.57;;;17.50;98.20;;;;;;5065726;28;20184;-70
2021/08/29 06:40:12;;;;;;;7.55;5.60;;;17.50;98.20;;;;;;5069169;28;20584;-70
2021/08/29 06:42:38;;;;;;;7.75;6.32;;;17.60;98.50;;;;;;5066847;28;20790;-69
2021/08/29 06:45:04;;;;;;;7.47;6.78;;;17.70;98.40;;;;;;5067814;28;20226;-69
2021/08/29 06:47:30;;;;;;;6.63;5.85;;;17.70;98.10;;;;;;5064509;28;20192;-70
2021/08/29 06:49:55;;;;;;;7.38;6.20;;;17.70;98.00;;;;;;5075323;28;20210;-73
2021/08/29 06:52:21;;;;;;;6.40;5.90;;;17.70;97.80;;;;;;5077344;28;20209;-71
2021/08/29 06:54:47;;;;;;;8.60;6.88;;;17.70;97.80;;;;;;5066684;28;20252;-69
2021/08/29 06:57:12;;;;;;;8.05;6.30;;;17.70;98.10;;;;;;5067927;28;20739;-72
2021/08/29 06:59:38;;;;;;;8.50;6.07;;;17.70;97.50;;;;;;5067408;28;20179;-72
2021/08/29 07:02:04;;;;;;;7.03;5.88;;;17.70;97.50;;;;;;5074323;28;20190;-71
2021/08/29 07:04:29;;;;;;;5.20;4.75;;;17.70;97.70;;;;;;5066331;28;20286;-71
2021/08/29 07:06:55;;;;;;;6.93;6.20;;;17.70;97.80;;;;;;5072164;28;20929;-70
2021/08/29 07:09:22;;;;;;;7.35;5.47;;;17.70;98.30;;;;;;5075491;28;20187;-71
2021/08/29 07:11:48;;;;;;;6.25;5.65;;;17.80;98.00;;;;;;5070956;28;20267;-72
2021/08/29 07:14:14;;;;;;;5.47;5.13;;;17.80;98.30;;;;;;5064795;28;20286;-68
2021/08/29 07:16:40;;;;;;;7.72;6.07;;;17.90;98.40;;;;;;5065360;28;20187;-67
2021/08/29 07:19:06;;;;;;;6.55;5.90;;;17.90;98.50;;;;;;5071604;28;20956;-68
2021/08/29 07:21:32;;;;;;;9.18;6.22;;;18.10;98.30;;;;;;5073850;28;20669;-68
2021/08/29 07:23:57;;;;;;;6.00;5.35;;;18.20;97.90;;;;;;5068773;28;20218;-68
2021/08/29 07:26:23;;;;;;;6.32;5.45;;;18.20;98.20;;;;;;5073796;28;20683;-69
2021/08/29 07:28:49;;;;;;;7.85;5.72;;;18.30;97.40;;;;;;5073191;28;20282;-69
2021/08/29 07:31:15;;;;;;;6.00;5.50;;;18.40;97.10;;;;;;5062472;28;20183;-70
2021/08/29 07:33:40;;;;;;;6.13;5.15;;;18.50;96.70;;;;;;5065706;28;20184;-69
2021/08/29 07:36:07;;;;;;;6.80;6.10;;;18.50;95.80;;;;;;5073162;28;20201;-69
2021/08/29 07:38:32;;;;;;;6.18;5.53;;;18.50;96.10;;;;;;5074890;28;20206;-69
2021/08/29 07:40:58;;;;;;;5.45;4.85;;;18.50;95.90;;;;;;5069143;28;20685;-69
2021/08/29 07:43:24;;;;;;;6.38;4.35;;;18.50;95.70;;;;;;5071787;28;20197;-69
2021/08/29 07:45:49;;;;;;;7.28;5.30;;;18.50;94.70;;;;;;5069230;28;20695;-69
2021/08/29 07:48:15;;;;;;;5.43;4.93;;;18.50;94.70;;;;;;5076058;28;20190;-69
2021/08/29 07:50:41;;;;;;;4.68;4.38;;;18.50;95.40;;;;;;5074353;28;20178;-69
2021/08/29 07:53:07;;;;;;;5.53;5.00;;;18.50;95.40;;;;;;5072506;28;20182;-69
2021/08/29 07:55:33;;;;;;;5.05;4.65;;;18.50;95.10;;;;;;5069460;28;20197;-69
2021/08/29 07:58:01;;;;;;;5.03;4.60;;;18.50;95.10;;;;;;5071697;28;20583;-68
2021/08/29 08:00:27;;;;;;;5.38;4.90;;;18.50;95.20;;;;;;5070550;28;20265;-68
2021/08/29 08:02:52;;;;;;;5.35;4.93;;;18.60;96.20;;;;;;5070035;28;20183;-68
2021/08/29 08:05:18;;;;;;;5.35;4.80;;;18.60;96.80;;;;;;5063865;28;20718;-68
2021/08/29 08:07:44;;;;;;;7.13;5.05;;;18.60;96.20;;;;;;5072645;28;20193;-68
2021/08/29 08:10:11;;;;;;;5.90;5.38;;;18.70;96.00;;;;;;5074020;28;20257;-69
2021/08/29 08:12:38;;;;;;;6.10;5.53;;;18.70;95.70;;;;;;5083859;28;20178;-68
2021/08/29 08:15:04;;;;;;;5.53;5.00;;;18.70;96.10;;;;;;5068098;28;22123;-69
2021/08/29 08:17:30;;;;;;;7.30;5.63;;;18.80;96.30;;;;;;5065655;28;20187;-68
2021/08/29 08:19:55;;;;;;;5.95;5.35;;;18.90;96.50;;;;;;5072399;28;20190;-69
2021/08/29 08:22:21;;;;;;;10.00;5.38;;;19.00;96.70;;;;;;5068042;28;20195;-68
2021/08/29 08:24:48;;;;;;;5.63;5.10;;;19.10;95.30;;;;;;5059307;28;20294;-69
2021/08/29 08:27:14;;;;;;;7.00;5.78;;;19.10;95.00;;;;;;5077381;28;20611;-70
2021/08/29 08:29:39;;;;;;;7.25;5.75;;;19.20;94.50;;;;;;5069644;28;20174;-69
2021/08/29 08:32:05;;;;;;;6.32;5.82;;;19.20;94.50;;;;;;5073789;28;20181;-68
2021/08/29 08:34:31;;;;;;;6.68;6.03;;;19.30;95.00;;;;;;5071619;28;20213;-69
2021/08/29 08:36:57;;;;;;;6.55;5.95;;;19.30;95.50;;;;;;5080345;28;20209;-69
2021/08/29 08:39:22;;;;;;;5.68;5.28;;;19.40;95.90;;;;;;5070080;28;20190;-68
2021/08/29 08:41:49;;;;;;;5.93;5.40;;;19.40;95.90;;;;;;5070488;28;20179;-68
2021/08/29 08:44:15;;;;;;;7.75;5.82;;;19.50;95.90;;;;;;5080116;28;20592;-69
2021/08/29 08:46:44;;;;;;;7.97;5.88;;;19.60;95.50;;;;;;5079777;28;20185;-68
2021/08/29 08:49:10;;;;;;;7.28;6.50;;;19.60;94.80;;;;;;5081225;28;20888;-68
2021/08/29 08:51:38;;;;;;;7.07;5.00;;;19.70;95.20;;;;;;5077033;28;20705;-70
2021/08/29 08:54:06;;;;;;;6.60;5.90;;;19.70;94.60;;;;;;5074947;28;20937;-69
2021/08/29 08:56:33;;;;;;;7.00;6.30;;;19.70;94.00;;;;;;5071787;28;20170;-69
2021/08/29 08:59:00;;;;;;;7.07;5.95;;;19.70;94.40;;;;;;5072203;28;20183;-69
2021/08/29 09:01:26;;;;;;;8.65;6.05;;;19.70;94.70;;;;;;5076900;28;20273;-68
2021/08/29 09:03:53;;;;;;;6.97;5.82;;;19.70;95.00;;;;;;5078896;28;20329;-69
2021/08/29 09:06:19;;;;;;;6.22;5.63;;;19.80;95.20;;;;;;5077342;28;20214;-68
2021/08/29 09:08:44;;;;;;;6.25;5.65;;;19.80;95.10;;;;;;5079191;28;20377;-68
2021/08/29 09:11:10;;;;;;;8.60;6.10;;;19.90;95.20;;;;;;5064947;28;20400;-68
2021/08/29 09:13:48;;;;;;;12.07;7.32;;;20.00;95.60;;;;;;5075029;28;20202;-68
2021/08/29 09:16:16;;;;;;;14.98;7.93;;;20.10;94.50;;;;;;5071054;28;20628;-68
2021/08/29 09:18:49;;;;;;;7.60;6.88;;;20.20;94.80;;;;;;5063021;28;20247;-68
2021/08/29 09:21:25;;;;;;;7.03;6.25;;;20.40;94.20;;;;;;5057701;28;20222;-71
2021/08/29 09:23:52;;;;;;;11.43;6.47;;;20.60;94.20;;;;;;5073435;28;20174;-68
2021/08/29 09:26:20;;;;;;;8.45;6.00;;;20.90;94.50;;;;;;5071389;28;20210;-68
2021/08/29 09:28:50;;;;;;;7.88;6.18;;;21.10;93.70;;;;;;5069110;28;20181;-67
2021/08/29 09:31:18;;;;;;;6.18;5.57;;;21.30;91.10;;;;;;5068239;28;20183;-68
2021/08/29 09:33:59;;;;;;;7.35;6.47;;;21.40;90.80;;;;;;5070981;28;20179;-67
2021/08/29 09:36:33;;;;;;;7.32;6.60;;;21.60;90.80;;;;;;5069390;28;20685;-67
2021/08/29 09:39:19;;;;;;;7.50;6.75;;;21.70;91.10;;;;;;5061714;28;20186;-67
2021/08/29 09:41:45;;;;;;;7.50;6.63;;;21.90;90.20;;;;;;5066321;28;20275;-67
2021/08/29 09:44:22;;;;;;;8.52;7.13;;;21.70;87.90;;;;;;5074453;28;20186;-70
2021/08/29 09:46:58;;;;;;;8.13;6.95;;;21.60;88.00;;;;;;5079095;28;20612;-67
2021/08/29 09:49:26;;;;;;;8.25;6.30;;;21.40;89.30;;;;;;5073525;28;20183;-70
2021/08/29 09:51:53;;;;;;;7.68;6.88;;;21.40;90.50;;;;;;5068465;28;20179;-68
2021/08/29 09:54:30;;;;;;;7.05;6.47;;;21.40;91.20;;;;;;5072910;28;20178;-68
2021/08/29 09:56:56;;;;;;;8.10;6.32;;;21.40;90.70;;;;;;5068531;28;20170;-66
2021/08/29 09:59:44;;;;;;;7.85;5.85;;;21.50;90.50;;;;;;5066060;28;20179;-66
2021/08/29 10:02:12;;;;;;;9.48;5.65;;;21.60;90.50;;;;;;5065945;28;20208;-66
2021/08/29 10:04:39;;;;;;;6.63;6.03;;;21.70;90.50;;;;;;5072117;28;20202;-67
2021/08/29 10:07:16;;;;;;;8.93;6.97;;;21.80;90.70;;;;;;5070129;28;20566;-67
2021/08/29 10:09:44;;;;;;;9.55;7.25;;;21.80;90.20;;;;;;5070346;28;20192;-67
2021/08/29 10:12:10;;;;;;;9.05;7.75;;;21.80;89.10;;;;;;5071566;28;20193;-68
2021/08/29 10:14:38;;;;;;;8.20;7.40;;;21.70;88.50;;;;;;5068883;28;20612;-68
2021/08/29 10:17:04;;;;;;;7.75;6.93;;;21.60;89.10;;;;;;5072464;28;20175;-68
2021/08/29 10:19:30;;;;;;;8.45;6.60;;;21.70;90.20;;;;;;5074121;28;20715;-67
2021/08/29 10:21:58;;;;;;;6.70;6.13;;;21.70;90.50;;;;;;5068268;28;20182;-67
2021/08/29 10:24:29;;;;;;;7.47;6.50;;;21.80;89.70;;;;;;5075702;28;20183;-68
2021/08/29 10:26:58;;;;;;;7.90;5.75;;;21.90;89.90;;;;;;5075313;28;20265;-68
2021/08/29 10:29:28;;;;;;;8.88;7.32;;;22.00;89.30;;;;;;5069810;28;20194;-67
2021/08/29 10:32:03;;;;;;;7.90;6.82;;;22.00;89.00;;;;;;5063959;28;20175;-67
2021/08/29 10:34:31;;;;;;;9.02;6.90;;;22.10;89.60;;;;;;5060157;28;20182;-69
2021/08/29 10:36:57;;;;;;;7.55;6.80;;;22.20;90.10;;;;;;5072797;28;20185;-68
2021/08/29 10:39:23;;;;;;;8.43;7.25;;;22.30;89.20;;;;;;5067573;28;20739;-68
2021/08/29 10:41:52;;;;;;;7.97;6.38;;;22.50;89.70;;;;;;5067747;28;20187;-66
2021/08/29 10:44:18;;;;;;;6.32;5.82;;;22.50;88.00;;;;;;5073171;28;20189;-67
2021/08/29 10:46:46;;;;;;;7.55;6.75;;;22.60;88.40;;;;;;5077526;28;20180;-67
2021/08/29 10:49:14;;;;;;;8.27;6.32;;;22.50;87.50;;;;;;5068795;28;20187;-67
2021/08/29 10:51:41;;;;;;;7.03;6.25;;;22.60;88.10;;;;;;5073121;28;20174;-68
2021/08/29 10:54:15;;;;;;;8.23;5.90;;;22.70;88.90;;;;;;5066101;28;21805;-69
2021/08/29 10:56:41;;;;;;;6.30;5.70;;;22.90;87.90;;;;;;5064030;28;20806;-68
2021/08/29 10:59:07;;;;;;;6.88;6.18;;;23.10;87.70;;;;;;5075916;28;20196;-68
2021/08/29 11:01:39;;;;;;;6.95;6.05;;;23.20;87.90;;;;;;5061570;28;20187;-68
2021/08/29 11:04:17;;;;;;;7.18;5.68;;;23.40;86.20;;;;;;5076300;28;20685;-67
2021/08/29 11:06:48;;;;;;;8.05;6.32;;;23.40;86.30;;;;;;5070481;28;20311;-67
2021/08/29 11:09:32;;;;;;;7.22;5.85;;;23.50;85.20;;;;;;5069050;28;20207;-67
2021/08/29 11:11:59;;;;;;;6.80;6.15;;;23.40;84.90;;;;;;5066500;28;20201;-67
2021/08/29 11:14:40;;;;;;;6.25;5.75;;;23.40;85.40;;;;;;5064090;28;20278;-68
2021/08/29 11:17:15;;;;;;;5.57;5.18;;;23.50;84.30;;;;;;5065980;28;20547;-67
2021/08/29 11:19:44;;;;;;;8.38;6.18;;;23.50;84.50;;;;;;5067420;28;20184;-67
2021/08/29 11:22:18;;;;;;;9.57;7.13;;;23.60;84.00;;;;;;5069595;28;20186;-67
2021/08/29 11:24:54;;;;;;;6.80;6.20;;;23.70;84.50;;;;;;5073053;28;20778;-67
2021/08/29 11:27:41;;;;;;;6.43;5.85;;;23.80;85.40;;;;;;5070515;28;20187;-67
2021/08/29 11:30:15;;;;;;;6.25;5.75;;;23.80;85.20;;;;;;5067087;28;20186;-67
2021/08/29 11:32:46;;;;;;;6.82;6.25;;;23.80;83.80;;;;;;5063250;28;20180;-67
2021/08/29 11:35:12;;;;;;;7.25;6.65;;;23.80;83.90;;;;;;5065896;28;20179;-67
2021/08/29 11:37:38;;;;;;;8.27;7.43;;;23.80;84.20;;;;;;5065749;28;20194;-68
2021/08/29 11:40:07;;;;;;;6.97;6.38;;;23.80;83.40;;;;;;5063977;28;20186;-68
2021/08/29 11:42:34;;;;;;;6.72;6.13;;;23.80;84.20;;;;;;5060502;28;20269;-67
2021/08/29 11:45:01;;;;;;;6.38;5.63;;;23.80;84.70;;;;;;5072364;28;20220;-67
2021/08/29 11:47:37;;;;;;;6.35;5.70;;;23.90;85.10;;;;;;5063138;28;20183;-67
2021/08/29 11:50:05;;;;;;;7.75;6.45;;;24.20;85.90;;;;;;5065052;28;20194;-71
2021/08/29 11:52:33;;;;;;;6.57;6.03;;;24.90;85.30;;;;;;5070670;28;20218;-70
2021/08/29 11:55:13;;;;;;;6.05;5.55;;;25.70;82.80;;;;;;5066597;28;20179;-70
2021/08/29 11:57:50;;;;;;;7.00;6.40;;;26.30;80.90;;;;;;5067188;28;20190;-69
2021/08/29 12:00:18;;;;;;;8.18;6.65;;;26.50;76.20;;;;;;5064380;28;20953;-70
2021/08/29 12:02:45;;;;;;;7.07;6.38;;;26.50;76.40;;;;;;5062413;28;20184;-73
2021/08/29 12:05:16;;;;;;;7.03;6.40;;;26.10;76.20;;;;;;5062826;28;21078;-71
2021/08/29 12:08:13;;;;;;;6.32;5.72;;;26.40;78.50;;;;;;5061051;28;20194;-71
2021/08/29 12:10:39;;;;;;;7.25;6.35;;;27.10;80.40;;;;;;5048232;28;20663;-69
2021/08/29 12:13:07;;;;;;;6.82;6.15;;;27.90;78.90;;;;;;5046464;28;20748;-70
2021/08/29 12:15:33;;;;;;;6.15;5.65;;;28.60;76.00;;;;;;5048172;28;20191;-71
2021/08/29 12:18:02;;;;;;;6.18;5.68;;;29.40;76.00;;;;;;5042610;28;20183;-70
2021/08/29 12:20:29;;;;;;;6.78;6.25;;;30.20;77.70;;;;;;5048211;28;20727;-70
2021/08/29 12:23:06;;;;;;;7.32;6.72;;;31.00;74.20;;;;;;5046443;28;20183;-70
2021/08/29 12:25:32;;;;;;;5.90;5.50;;;31.80;71.30;;;;;;5044623;28;20246;-70
2021/08/29 12:28:12;;;;;;;6.05;5.55;;;32.50;68.60;;;;;;5043310;28;20183;-69
2021/08/29 12:30:39;;;;;;;6.28;5.93;;;33.10;69.50;;;;;;5047334;28;20246;-74
2021/08/29 12:33:13;;;;;;;6.00;5.50;;;33.60;65.90;;;;;;5033030;28;20179;-71
2021/08/29 12:35:41;;;;;;;12.18;6.05;;;34.00;68.10;;;;;;5044641;28;20627;-72
2021/08/29 12:38:27;;;;;;;6.57;6.05;;;34.40;64.00;;;;;;5048387;28;20198;-72
2021/08/29 12:40:56;;;;;;;6.68;6.18;;;34.80;61.40;;;;;;5050499;28;20205;-72
2021/08/29 12:43:25;;;;;;;6.82;6.15;;;34.60;61.40;;;;;;5047867;28;20274;-72
2021/08/29 12:45:50;;;;;;;6.65;6.13;;;34.40;63.60;;;;;;5045120;28;20221;-72
2021/08/29 12:48:17;;;;;;;7.10;6.47;;;34.10;62.70;;;;;;5063000;28;20520;-72
2021/08/29 12:50:51;;;;;;;6.35;5.95;;;33.60;62.20;;;;;;5061143;28;20184;-72